Williamsport Regional Airport
KIPT : now visible

Airfield :











YOU CAN JOIN US ON...

 
LOGIN :

Register | Disclaimer

   EN    FR    IT 

 









Legend :    VFR   Marginal VFR   IFR   Intensive IFR   Very Intensive IFR
Visi :
Ceiling :
>= 8 km
>= 3000ft
5 to 8 km
1000 to 3000 ft
1500m to 5 km
500 to 1000 ft
800 to 1500m
200 to 500 ft
< 800m
< 200 ft
Symbols :   Thunderstorms  Fog  Heavy snow  Heavy precipitations  Wind > 20 kt






- Airport Elevation : 529 ft
- IATA code : IPT


KIPT - Williamsport Regional

CURRENT METAR :
  • 030854Z AUTO 25003KT 10SM SCT038 22/16 A2997 RMK AO2 SLP143 T02170161 51019

EXPIRED METARs :
  • 030754Z AUTO 26007KT 10SM SCT035 23/16 A2995 RMK AO2 SLP138 T02280161
  • 030654Z AUTO 27010KT 10SM CLR 23/16 A2993 RMK AO2 SLP131 T02280156
  • 030554Z AUTO 27013G18KT 10SM CLR 23/16 A2991 RMK AO2 SLP124 T02280156 10300 20228 50008

TAF KIPT
Valid from the 03 at 06:00 until the 04 at 06:00 UTC


030525Z 0306/0406 26008G16KT P6SM SCT035 BKN070
FM031400 21007KT P6SM BKN050
FM040500 17006KT P6SM SCT040 BKN100
KZNY FIR / North America



MET'MAP, your aeronautical weather chart ! - Copyright ORBIFLY December 2007 - Disclaimer

ORBIFLY MET'MAP TEAM :

Programming & Development : Alexandra Zaïnal
Concept & original design : Baudouin d'Aumeries
Assistance for programming : Marc-Olivier Méhu
Technical & hardware support : Manuel Goepfert

Contact : metmap@orbifly.com




SOURCES & CREDITS :

   NOAA       Earth
Advisory